Time;durP1;ratioP1;P1;durP2;ratioP2;P2;SDS_P1;SDS_P2;PMS_P1;PMS_P2;Temp;Humidity;BMP_temperature;BMP_pressure;BME280_temperature;BME280_humidity;BME280_pressure;Samples;Min_cycle;Max_cycle;Signal;HPM_P1;HPM_P2
2021/05/14 00:00:47;;;;;;;12.55;8.53;;;;;;;8.73;81.45;93352.77;1712214;83;21503;-51
2021/05/14 00:03:14;;;;;;;13.43;8.60;;;;;;;8.63;81.77;93354.08;1712441;83;20965;-52
2021/05/14 00:05:42;;;;;;;15.88;9.30;;;;;;;8.54;82.07;93361.75;1712553;83;21111;-52
2021/05/14 00:08:08;;;;;;;10.65;7.67;;;;;;;8.49;82.59;93359.66;1712532;83;20973;-53
2021/05/14 00:10:39;;;;;;;11.60;7.58;;;;;;;8.47;83.09;93353.86;1712426;83;21127;-52
2021/05/14 00:13:07;;;;;;;11.35;7.72;;;;;;;8.48;83.21;93367.73;1712260;83;21163;-53
2021/05/14 00:15:34;;;;;;;7.72;6.80;;;;;;;8.53;83.54;93364.34;1712463;83;21033;-53
2021/05/14 00:18:00;;;;;;;12.15;8.40;;;;;;;8.51;83.42;93359.95;1712519;83;21092;-52
2021/05/14 00:20:27;;;;;;;15.13;8.13;;;;;;;8.48;83.55;93360.89;1712451;83;21500;-52
2021/05/14 00:22:54;;;;;;;9.90;7.58;;;;;;;8.46;83.43;93367.42;1712369;83;21048;-52
2021/05/14 00:25:21;;;;;;;11.95;7.83;;;;;;;8.47;83.58;93373.05;1712418;83;21104;-53
2021/05/14 00:27:47;;;;;;;12.13;9.23;;;;;;;8.52;83.52;93365.57;1712373;83;21016;-52
2021/05/14 00:30:17;;;;;;;13.88;8.63;;;;;;;8.54;83.53;93368.60;1712420;83;20993;-52
2021/05/14 00:32:44;;;;;;;10.82;7.75;;;;;;;8.60;83.86;93370.83;1712460;83;20913;-52
2021/05/14 00:35:12;;;;;;;9.13;7.20;;;;;;;8.71;83.68;93361.48;1712398;83;21602;-52
2021/05/14 00:37:39;;;;;;;10.93;7.37;;;;;;;8.80;83.74;93375.10;1712306;83;21071;-52
2021/05/14 00:40:07;;;;;;;12.68;8.05;;;;;;;8.92;83.62;93362.51;1712290;83;21001;-52
2021/05/14 00:42:34;;;;;;;9.53;8.15;;;;;;;9.04;83.51;93364.88;1712364;83;21028;-52
2021/05/14 00:45:00;;;;;;;11.22;7.83;;;;;;;9.11;82.83;93359.01;1712481;83;21105;-51
2021/05/14 00:47:27;;;;;;;11.25;8.20;;;;;;;9.13;82.31;93359.29;1712393;83;21091;-53
2021/05/14 00:49:54;;;;;;;10.50;7.55;;;;;;;9.07;82.02;93358.44;1712433;83;20924;-52
2021/05/14 00:52:21;;;;;;;10.85;7.58;;;;;;;9.03;81.88;93351.02;1712432;83;21093;-54
2021/05/14 00:54:51;;;;;;;14.30;8.50;;;;;;;9.03;81.79;93357.88;1712380;83;21100;-52
2021/05/14 00:57:17;;;;;;;13.83;8.18;;;;;;;8.98;81.81;93353.02;1712419;83;21049;-52
2021/05/14 00:59:46;;;;;;;13.25;8.53;;;;;;;8.96;81.91;93349.99;1711999;83;21685;-52
2021/05/14 01:02:13;;;;;;;9.88;7.58;;;;;;;8.99;81.97;93354.53;1704443;84;20941;-52
2021/05/14 01:04:42;;;;;;;15.80;8.20;;;;;;;9.03;81.91;93348.27;1704432;84;21567;-51
2021/05/14 01:07:10;;;;;;;13.25;8.60;;;;;;;9.08;81.74;93343.50;1704335;84;21001;-52
2021/05/14 01:09:39;;;;;;;9.85;8.18;;;;;;;9.05;81.59;93342.44;1704596;84;21005;-52
2021/05/14 01:12:10;;;;;;;9.88;8.10;;;;;;;9.02;81.65;93335.77;1704516;84;21793;-52
2021/05/14 01:14:37;;;;;;;9.73;8.58;;;;;;;9.02;81.75;93331.64;1704136;84;20989;-52
2021/05/14 01:17:04;;;;;;;9.90;8.40;;;;;;;8.98;81.53;93335.19;1704532;84;20997;-51
2021/05/14 01:19:31;;;;;;;11.00;8.20;;;;;;;8.91;81.53;93330.09;1704479;84;21104;-55
2021/05/14 01:21:58;;;;;;;9.80;8.33;;;;;;;8.85;81.56;93340.80;1704634;84;21052;-51
2021/05/14 01:24:24;;;;;;;12.23;8.08;;;;;;;8.75;81.64;93337.38;1704486;84;21132;-52
2021/05/14 01:26:51;;;;;;;13.60;7.95;;;;;;;8.68;81.84;93332.27;1704486;84;21081;-52
2021/05/14 01:29:17;;;;;;;14.00;8.45;;;;;;;8.66;82.10;93328.47;1704458;83;20981;-52
2021/05/14 01:31:44;;;;;;;16.48;7.85;;;;;;;8.63;82.11;93325.30;1704417;84;21060;-53
2021/05/14 01:34:10;;;;;;;9.60;7.78;;;;;;;8.61;82.07;93331.86;1704469;84;21032;-53
2021/05/14 01:36:39;;;;;;;13.13;8.13;;;;;;;8.56;81.98;93330.52;1704505;84;21091;-53
2021/05/14 01:39:10;;;;;;;13.93;8.10;;;;;;;8.51;82.23;93324.33;1704597;84;20981;-52
2021/05/14 01:41:37;;;;;;;9.50;8.15;;;;;;;8.51;82.38;93327.06;1684282;84;20988;-52
2021/05/14 01:44:06;;;;;;;11.35;8.90;;;;;;;8.50;82.45;93336.52;1704529;84;21033;-52
2021/05/14 01:46:33;;;;;;;8.38;7.37;;;;;;;8.44;82.42;93330.14;1704658;84;21536;-52
2021/05/14 01:49:00;;;;;;;11.93;7.40;;;;;;;8.40;82.61;93326.08;1704495;84;21145;-53
2021/05/14 01:51:27;;;;;;;10.32;7.10;;;;;;;8.38;82.54;93330.64;1704530;84;21006;-53
2021/05/14 01:53:54;;;;;;;11.85;7.20;;;;;;;8.38;82.51;93327.91;1704644;84;21045;-52
2021/05/14 01:56:21;;;;;;;9.10;7.00;;;;;;;8.41;82.76;93324.23;1704571;84;21591;-55
2021/05/14 01:58:48;;;;;;;12.20;7.12;;;;;;;8.50;82.77;93328.89;1704673;84;21523;-53
2021/05/14 02:01:16;;;;;;;14.98;7.67;;;;;;;8.53;82.41;93315.61;1707143;84;21079;-52
2021/05/14 02:03:42;;;;;;;13.30;7.08;;;;;;;8.57;82.59;93316.95;1709813;84;21029;-50
2021/05/14 02:06:09;;;;;;;10.90;7.20;;;;;;;8.69;82.61;93320.07;1709924;84;21595;-53
2021/05/14 02:08:38;;;;;;;10.28;7.15;;;;;;;8.81;82.42;93323.15;1709694;84;20996;-52
2021/05/14 02:11:08;;;;;;;13.32;7.58;;;;;;;8.87;81.98;93321.30;1709794;83;20961;-51
2021/05/14 02:13:33;;;;;;;12.15;7.62;;;;;;;8.87;81.84;93319.92;1709457;84;21118;-51
2021/05/14 02:15:59;;;;;;;13.72;6.83;;;;;;;8.84;81.63;93319.47;1709724;84;20997;-52
2021/05/14 02:18:26;;;;;;;10.35;6.70;;;;;;;8.82;81.56;93317.81;1709940;84;21001;-51
2021/05/14 02:20:53;;;;;;;21.23;8.10;;;;;;;8.78;81.51;93313.12;1709915;84;21590;-52
2021/05/14 02:23:19;;;;;;;23.67;13.38;;;;;;;8.77;81.80;93320.47;1709908;83;21065;-52
2021/05/14 02:25:46;;;;;;;11.83;7.97;;;;;;;8.81;81.93;93320.41;1709928;83;21103;-52
2021/05/14 02:28:12;;;;;;;9.18;7.45;;;;;;;8.84;81.60;93319.47;1709861;84;21556;-52
2021/05/14 02:30:39;;;;;;;11.00;6.80;;;;;;;8.84;81.44;93325.58;1709842;84;21069;-53
2021/05/14 02:33:07;;;;;;;11.70;6.97;;;;;;;8.81;81.37;93321.04;1709795;84;21521;-52
2021/05/14 02:35:36;;;;;;;10.60;6.72;;;;;;;8.78;81.10;93325.47;1709877;83;21080;-52
2021/05/14 02:38:04;;;;;;;6.70;5.58;;;;;;;8.74;81.07;93324.89;1709721;84;21108;-53
2021/05/14 02:40:30;;;;;;;8.50;6.03;;;;;;;8.69;80.99;93322.81;1709636;84;21060;-53
2021/05/14 02:42:57;;;;;;;8.25;5.70;;;;;;;8.60;80.96;93321.50;1709752;84;20977;-52
2021/05/14 02:45:23;;;;;;;7.58;5.40;;;;;;;8.53;81.28;93316.39;1709753;84;20989;-52
2021/05/14 02:47:50;;;;;;;8.15;5.50;;;;;;;8.56;81.58;93328.38;1709864;84;21064;-52
2021/05/14 02:50:16;;;;;;;5.78;5.25;;;;;;;8.60;81.32;93322.13;1709828;84;21090;-51
2021/05/14 02:52:43;;;;;;;7.47;5.45;;;;;;;8.59;81.60;93317.88;1709782;84;21572;-52
2021/05/14 02:55:11;;;;;;;8.28;5.53;;;;;;;8.67;82.00;93323.90;1709885;84;21024;-51
2021/05/14 02:57:38;;;;;;;6.53;5.92;;;;;;;8.76;81.74;93325.19;1709735;84;21025;-50
2021/05/14 03:00:06;;;;;;;7.33;5.60;;;;;;;8.82;81.58;93323.30;1709712;84;21005;-50
2021/05/14 03:02:33;;;;;;;7.35;5.87;;;;;;;8.80;81.47;93329.86;1716842;83;21584;-51
2021/05/14 03:04:59;;;;;;;7.03;5.42;;;;;;;8.85;81.55;93331.98;1717954;83;21047;-51
2021/05/14 03:07:26;;;;;;;5.87;5.28;;;;;;;8.89;81.55;93333.91;1717828;83;21028;-51
2021/05/14 03:09:53;;;;;;;13.48;5.90;;;;;;;8.90;81.56;93336.17;1717820;83;21026;-52
2021/05/14 03:12:19;;;;;;;10.13;5.92;;;;;;;8.86;81.75;93332.12;1717844;83;21095;-55
2021/05/14 03:14:45;;;;;;;9.78;5.65;;;;;;;8.92;82.00;93339.83;1718051;83;21658;-52
2021/05/14 03:17:12;;;;;;;6.80;5.00;;;;;;;9.02;81.88;93341.25;1717839;83;21060;-55
2021/05/14 03:19:39;;;;;;;7.90;5.00;;;;;;;9.08;81.43;93337.38;1718037;83;21477;-56
2021/05/14 03:22:05;;;;;;;7.80;5.00;;;;;;;9.12;81.56;93339.95;1717923;83;20973;-55
2021/05/14 03:24:32;;;;;;;5.60;4.95;;;;;;;9.15;81.53;93341.14;1717899;83;21036;-56
2021/05/14 03:26:59;;;;;;;8.00;4.97;;;;;;;9.22;81.36;93342.77;1717917;83;21621;-56
2021/05/14 03:29:26;;;;;;;13.13;7.58;;;;;;;9.25;81.31;93349.41;1717750;83;21028;-58
2021/05/14 03:31:52;;;;;;;6.10;5.30;;;;;;;9.32;81.36;93346.91;1717930;83;21024;-55
2021/05/14 03:34:19;;;;;;;7.65;5.15;;;;;;;9.43;81.38;93347.12;1718029;83;21512;-55
2021/05/14 03:36:45;;;;;;;10.08;6.45;;;;;;;9.57;81.24;93346.34;1717875;83;20976;-55
2021/05/14 03:39:14;;;;;;;8.45;5.40;;;;;;;9.69;80.97;93343.92;1717974;83;21075;-57
2021/05/14 03:41:47;;;;;;;6.12;5.03;;;;;;;9.77;80.62;93344.44;1717844;83;21515;-59
2021/05/14 03:44:12;;;;;;;10.20;5.28;;;;;;;9.84;80.72;93344.67;1717653;83;21523;-56
2021/05/14 03:46:38;;;;;;;8.33;5.05;;;;;;;9.86;79.78;93338.08;1717980;83;21005;-52
2021/05/14 03:49:05;;;;;;;8.85;4.97;;;;;;;9.79;79.76;93342.60;1718029;83;21539;-54
2021/05/14 03:51:35;;;;;;;10.90;5.75;;;;;;;9.78;79.83;93343.84;1717914;83;21098;-52
2021/05/14 03:54:03;;;;;;;11.63;5.35;;;;;;;9.81;79.76;93342.25;1717738;83;21508;-51
2021/05/14 03:56:29;;;;;;;6.45;5.55;;;;;;;9.83;79.82;93337.66;1717893;83;21511;-50
2021/05/14 03:58:57;;;;;;;9.65;6.03;;;;;;;9.81;79.77;93336.76;1718005;83;21016;-52
2021/05/14 04:01:24;;;;;;;10.98;5.17;;;;;;;9.77;79.75;93343.06;1714473;83;21460;-52
2021/05/14 04:03:50;;;;;;;13.58;8.00;;;;;;;9.76;80.09;93347.05;1704651;84;21080;-51
2021/05/14 04:06:17;;;;;;;13.18;7.25;;;;;;;9.80;80.25;93346.23;1704437;84;21509;-50
2021/05/14 04:08:44;;;;;;;10.15;5.62;;;;;;;9.90;80.43;93359.23;1704613;84;20965;-51
2021/05/14 04:16:26;;;;;;;7.40;6.12;;;;;;;9.98;80.32;93357.63;1704709;84;21690;-50
2021/05/14 04:18:53;;;;;;;11.50;6.47;;;;;;;10.02;80.58;93352.09;1704370;84;21588;-52
2021/05/14 04:21:19;;;;;;;6.28;5.55;;;;;;;10.13;80.73;93361.14;1704599;84;21056;-53
2021/05/14 04:23:46;;;;;;;12.78;6.62;;;;;;;10.25;80.30;93358.67;1704647;84;21133;-52
2021/05/14 04:26:12;;;;;;;9.33;6.78;;;;;;;10.25;79.98;93351.80;1704647;84;21065;-52
2021/05/14 04:28:40;;;;;;;12.00;5.72;;;;;;;10.27;79.72;93363.07;1704528;84;21709;-51
2021/05/14 04:31:06;;;;;;;7.85;5.83;;;;;;;10.25;79.45;93364.94;1704505;84;21009;-52
2021/05/14 04:33:33;;;;;;;10.38;5.33;;;;;;;10.24;79.52;93358.53;1704476;84;21155;-51
2021/05/14 04:35:59;;;;;;;15.35;6.85;;;;;;;10.23;79.40;93362.52;1704583;84;21619;-52
2021/05/14 04:38:26;;;;;;;11.20;5.92;;;;;;;10.19;79.41;93351.72;1704651;84;20980;-50
2021/05/14 04:40:52;;;;;;;17.37;6.60;;;;;;;10.21;79.39;93358.12;1704587;84;21081;-52
2021/05/14 04:43:21;;;;;;;9.63;5.37;;;;;;;10.27;79.27;93357.58;1704403;84;21465;-51
2021/05/14 04:45:48;;;;;;;19.12;6.67;;;;;;;10.34;79.21;93357.20;1704422;84;21497;-52
2021/05/14 04:48:14;;;;;;;9.50;5.28;;;;;;;10.41;79.21;93362.28;1704625;83;21041;-51
2021/05/14 04:50:41;;;;;;;13.25;5.78;;;;;;;10.44;78.94;93356.59;1704651;83;21536;-51
2021/05/14 04:53:12;;;;;;;7.55;5.92;;;;;;;10.44;78.86;93357.19;1704574;84;21094;-51
2021/05/14 04:55:38;;;;;;;12.45;5.90;;;;;;;10.44;78.85;93358.56;1704593;84;20986;-52
2021/05/14 04:58:05;;;;;;;14.83;5.95;;;;;;;10.45;78.88;93350.45;1704513;84;21033;-51
2021/05/14 05:00:32;;;;;;;20.15;10.38;;;;;;;10.47;78.91;93359.75;1704336;84;21096;-51
2021/05/14 05:03:00;;;;;;;37.88;13.03;;;;;;;10.52;78.97;93361.06;1704321;83;20989;-51
2021/05/14 05:05:27;;;;;;;22.00;9.88;;;;;;;10.60;78.92;93362.16;1704468;84;21080;-51
2021/05/14 05:07:53;;;;;;;18.80;11.18;;;;;;;10.64;78.87;93366.23;1704450;84;21100;-52
2021/05/14 05:10:21;;;;;;;12.90;7.78;;;;;;;10.69;78.66;93362.05;1704493;84;21040;-52
2021/05/14 05:12:48;;;;;;;24.55;9.50;;;;;;;10.73;78.42;93368.09;1704512;84;20989;-53
2021/05/14 05:15:15;;;;;;;17.30;8.45;;;;;;;10.81;78.46;93370.69;1704426;83;21108;-53
2021/05/14 05:17:42;;;;;;;17.57;9.88;;;;;;;10.91;78.25;93367.18;1704509;84;21072;-53
2021/05/14 05:20:10;;;;;;;19.80;12.15;;;;;;;11.00;78.13;93371.92;1704407;83;20942;-58
2021/05/14 05:22:36;;;;;;;13.28;9.60;;;;;;;11.10;77.85;93367.80;1690814;83;21060;-52
2021/05/14 05:25:04;;;;;;;10.93;7.00;;;;;;;11.15;77.58;93369.84;1680803;84;21559;-53
2021/05/14 05:27:31;;;;;;;17.50;7.58;;;;;;;11.17;77.32;93365.98;1696191;82;21084;-52
2021/05/14 05:29:58;;;;;;;23.15;8.20;;;;;;;11.21;77.10;93363.77;1706121;83;21622;-52
2021/05/14 05:32:24;;;;;;;30.00;8.65;;;;;;;11.28;77.05;93370.86;1705950;84;21080;-54
2021/05/14 05:34:52;;;;;;;13.35;6.97;;;;;;;11.36;76.73;93374.08;1705857;84;21020;-52
2021/05/14 05:37:21;;;;;;;11.65;6.87;;;;;;;11.41;76.48;93369.27;1705252;82;21076;-53
2021/05/14 05:39:47;;;;;;;18.77;6.75;;;;;;;11.48;76.32;93368.83;1705449;82;21092;-53
2021/05/14 05:42:14;;;;;;;14.80;8.08;;;;;;;11.57;76.05;93364.55;1711550;82;21143;-53
2021/05/14 05:44:41;;;;;;;30.80;8.28;;;;;;;11.66;75.77;93374.05;1716452;82;21074;-53
2021/05/14 05:47:07;;;;;;;11.18;6.10;;;;;;;11.73;75.25;93370.09;1707793;82;21877;-53
2021/05/14 05:49:35;;;;;;;24.27;9.03;;;;;;;11.72;75.23;93374.84;1716544;82;21072;-53
2021/05/14 05:52:01;;;;;;;13.72;6.50;;;;;;;11.75;75.00;93375.23;1727100;82;21158;-52
2021/05/14 05:54:28;;;;;;;13.70;6.75;;;;;;;11.80;74.62;93378.69;1726861;82;21081;-54
2021/05/14 05:56:57;;;;;;;17.48;7.62;;;;;;;11.87;74.61;93375.48;1716517;82;21586;-55
2021/05/14 05:59:23;;;;;;;20.20;7.35;;;;;;;11.98;74.30;93382.48;1704990;82;21119;-53
2021/05/14 06:01:50;;;;;;;17.98;7.28;;;;;;;12.11;74.00;93378.67;1631683;86;21801;-61
2021/05/14 06:04:17;;;;;;;17.05;5.83;;;;;;;12.22;73.69;93387.66;1665457;84;22040;-59
2021/05/14 06:06:43;;;;;;;26.93;8.05;;;;;;;12.27;73.21;93387.70;1699099;82;21120;-57
2021/05/14 06:09:11;;;;;;;17.92;7.47;;;;;;;12.31;72.96;93388.25;1712625;82;21067;-53
2021/05/14 06:11:40;;;;;;;23.00;9.38;;;;;;;12.35;72.85;93387.40;1695157;82;21067;-56
2021/05/14 06:14:07;;;;;;;9.35;5.95;;;;;;;12.43;73.01;93393.95;1696670;82;21095;-56
2021/05/14 06:16:34;;;;;;;7.22;4.80;;;;;;;12.53;72.69;93388.40;1696070;82;21134;-57
2021/05/14 06:19:11;;;;;;;12.47;6.67;;;;;;;12.71;72.15;93400.42;1700180;82;21646;-57
2021/05/14 06:21:31;;;;;;;26.73;6.95;;;;;;;12.85;72.17;93391.97;1701017;82;21120;-57
2021/05/14 06:23:57;;;;;;;15.80;9.05;;;;;;;13.05;71.89;93399.39;1702265;82;21139;-55
2021/05/14 06:26:25;;;;;;;10.95;9.15;;;;;;;13.22;71.85;93391.90;1719013;82;21829;-54
2021/05/14 06:28:52;;;;;;;19.55;8.85;;;;;;;13.33;71.65;93387.81;1688605;82;21020;-56
2021/05/14 06:31:19;;;;;;;14.73;7.42;;;;;;;13.34;71.32;93388.70;1703766;82;21147;-54
2021/05/14 06:33:45;;;;;;;9.03;6.95;;;;;;;13.41;71.08;93382.69;1693888;82;21124;-55
2021/05/14 06:36:12;;;;;;;17.40;8.68;;;;;;;13.49;70.53;93391.25;1704964;82;21730;-56
2021/05/14 06:38:41;;;;;;;13.78;7.85;;;;;;;13.55;70.11;93389.25;1696723;82;21122;-58
2021/05/14 06:41:07;;;;;;;19.90;8.60;;;;;;;13.66;69.78;93394.17;1718372;82;21099;-56
2021/05/14 06:43:35;;;;;;;22.62;8.10;;;;;;;13.72;69.45;93395.58;1699588;82;21100;-59
2021/05/14 06:46:02;;;;;;;9.38;6.45;;;;;;;13.79;69.18;93395.84;1689155;82;21063;-58
2021/05/14 06:48:29;;;;;;;16.60;6.25;;;;;;;13.80;69.08;93391.09;1695437;82;21000;-54
2021/05/14 06:50:56;;;;;;;11.55;7.33;;;;;;;13.80;69.21;93393.20;1693574;82;21132;-55
2021/05/14 06:53:24;;;;;;;12.98;8.00;;;;;;;13.85;69.10;93401.39;1717934;82;21028;-57
2021/05/14 06:55:52;;;;;;;15.83;8.70;;;;;;;13.96;68.98;93398.66;1691187;82;21759;-54
2021/05/14 06:58:18;;;;;;;26.42;14.38;;;;;;;14.03;68.60;93391.23;1717006;82;21089;-56
2021/05/14 07:00:45;;;;;;;22.50;12.40;;;;;;;14.15;68.92;93399.67;1708510;81;22026;-56
2021/05/14 07:03:12;;;;;;;31.77;15.68;;;;;;;14.19;68.92;93400.20;1721124;82;21843;-61
2021/05/14 07:05:38;;;;;;;33.65;16.73;;;;;;;14.17;68.99;93398.57;1706470;82;21059;-57
2021/05/14 07:08:06;;;;;;;35.85;19.50;;;;;;;14.14;69.07;93397.52;1705381;82;21115;-58
2021/05/14 07:10:34;;;;;;;39.58;18.70;;;;;;;14.14;69.31;93400.94;1718391;82;21087;-56
2021/05/14 07:13:00;;;;;;;38.55;16.55;;;;;;;14.17;69.62;93404.10;1702356;82;21075;-55
2021/05/14 07:15:29;;;;;;;44.23;18.10;;;;;;;14.19;69.28;93400.94;1701738;82;21442;-55
2021/05/14 07:18:00;;;;;;;36.20;15.72;;;;;;;14.26;69.11;93400.45;1706669;82;21012;-56
2021/05/14 07:20:27;;;;;;;36.08;18.57;;;;;;;14.35;68.75;93400.84;1734225;82;21102;-58
2021/05/14 07:22:55;;;;;;;20.92;12.30;;;;;;;14.43;68.61;93401.21;1724373;82;21117;-56
2021/05/14 07:25:24;;;;;;;20.70;10.88;;;;;;;14.46;67.98;93402.97;1705815;82;21070;-54
2021/05/14 07:27:50;;;;;;;21.15;11.00;;;;;;;14.51;67.66;93409.13;1687779;83;21088;-53
2021/05/14 07:30:17;;;;;;;14.13;8.53;;;;;;;14.59;67.78;93409.49;1702718;82;21628;-58
2021/05/14 07:32:44;;;;;;;10.93;7.45;;;;;;;14.61;67.00;93406.97;1689843;83;21243;-54
2021/05/14 07:35:11;;;;;;;15.03;8.78;;;;;;;14.63;66.79;93412.75;1702265;82;21081;-55
2021/05/14 07:37:38;;;;;;;12.35;7.35;;;;;;;14.68;66.87;93414.02;1701110;82;21040;-57
2021/05/14 07:40:07;;;;;;;26.87;8.18;;;;;;;14.77;66.87;93417.89;1715206;82;21120;-57
2021/05/14 07:42:34;;;;;;;17.10;7.30;;;;;;;14.83;66.48;93413.86;1727107;82;21050;-56
2021/05/14 07:45:01;;;;;;;11.70;8.05;;;;;;;14.91;66.35;93416.86;1710574;82;21097;-56
2021/05/14 07:47:28;;;;;;;15.55;9.53;;;;;;;14.97;66.18;93422.52;1703541;82;21075;-56
2021/05/14 07:49:55;;;;;;;19.70;9.33;;;;;;;15.04;66.52;93417.09;1691925;82;21140;-57
2021/05/14 07:52:22;;;;;;;21.48;9.48;;;;;;;15.17;66.11;93414.55;1696346;82;21107;-57
2021/05/14 07:54:49;;;;;;;16.17;9.70;;;;;;;15.32;65.72;93411.62;1692869;82;21043;-54
2021/05/14 07:57:16;;;;;;;19.42;9.80;;;;;;;15.51;64.92;93414.59;1706329;82;21074;-53
2021/05/14 07:59:44;;;;;;;18.67;9.28;;;;;;;15.74;64.66;93420.14;1713677;82;21070;-54
2021/05/14 08:02:10;;;;;;;14.43;9.25;;;;;;;15.95;64.27;93419.89;1712772;82;21084;-55
2021/05/14 08:04:37;;;;;;;11.38;7.75;;;;;;;16.13;63.57;93417.24;1699710;82;21976;-54
2021/05/14 08:07:05;;;;;;;13.88;7.45;;;;;;;16.29;63.40;93421.93;1697316;82;21179;-53
2021/05/14 08:09:32;;;;;;;18.32;6.72;;;;;;;16.49;63.31;93421.55;1705787;82;21111;-53
2021/05/14 08:12:04;;;;;;;17.65;5.90;;;;;;;16.64;61.57;93419.93;1705991;82;21078;-59
2021/05/14 08:14:29;;;;;;;13.48;6.05;;;;;;;16.74;60.88;93418.97;1726044;82;21086;-54
2021/05/14 08:16:56;;;;;;;11.18;3.75;;;;;;;16.83;60.00;93426.33;1714159;82;21080;-55
2021/05/14 08:19:24;;;;;;;15.48;3.67;;;;;;;16.91;58.88;93427.25;1705227;82;21593;-56
2021/05/14 08:21:51;;;;;;;8.10;4.00;;;;;;;16.99;57.55;93430.98;1727301;82;21145;-56
2021/05/14 08:24:17;;;;;;;7.40;3.85;;;;;;;17.06;57.03;93427.62;1709126;82;21591;-55
2021/05/14 08:26:44;;;;;;;6.37;3.05;;;;;;;17.18;56.20;93437.36;1736504;82;21078;-55
2021/05/14 08:29:11;;;;;;;2.42;2.12;;;;;;;17.26;54.88;93433.36;1711309;82;21615;-55
2021/05/14 08:31:40;;;;;;;4.70;2.33;;;;;;;17.31;54.88;93429.11;1699683;82;21103;-55
2021/05/14 08:34:08;;;;;;;3.08;1.72;;;;;;;17.39;54.30;93435.64;1648398;85;21624;-53
2021/05/14 08:36:34;;;;;;;3.45;2.00;;;;;;;17.49;54.29;93434.66;1662058;84;21600;-59
2021/05/14 08:39:02;;;;;;;3.45;2.42;;;;;;;17.58;54.01;93436.44;1650239;85;21140;-58
2021/05/14 08:41:29;;;;;;;2.27;1.60;;;;;;;17.63;54.32;93443.22;1684303;82;21086;-55
2021/05/14 08:43:56;;;;;;;8.68;2.47;;;;;;;17.69;54.02;93443.27;1711271;83;21036;-55
2021/05/14 08:46:24;;;;;;;2.45;1.77;;;;;;;17.79;53.61;93442.27;1712420;82;21086;-54
2021/05/14 08:48:52;;;;;;;2.75;1.52;;;;;;;17.90;53.00;93449.06;1706554;82;21068;-55
2021/05/14 08:51:24;;;;;;;8.00;2.10;;;;;;;17.96;53.01;93444.94;1693677;83;21067;-56
2021/05/14 08:53:48;;;;;;;11.48;5.40;;;;;;;18.03;52.67;93444.33;1707039;82;21136;-56
2021/05/14 08:56:15;;;;;;;2.75;1.60;;;;;;;18.04;52.61;93443.70;1710425;82;21088;-56
2021/05/14 08:58:42;;;;;;;3.67;1.42;;;;;;;18.04;52.33;93453.44;1703553;82;21125;-59
2021/05/14 09:01:09;;;;;;;3.33;1.10;;;;;;;18.03;51.82;93455.45;1700011;82;21096;-58
2021/05/14 09:04:03;;;;;;;1.27;1.17;;;;;;;17.95;51.50;93454.56;1702260;82;21051;-58
2021/05/14 09:06:41;;;;;;;2.90;1.25;;;;;;;17.92;51.34;93447.90;1705157;82;21608;-56
2021/05/14 09:09:12;;;;;;;2.10;1.10;;;;;;;17.89;51.36;93458.69;1708276;82;21024;-52
2021/05/14 09:11:51;;;;;;;1.77;0.95;;;;;;;17.96;51.61;93460.87;1704601;82;21134;-57
2021/05/14 09:14:48;;;;;;;11.22;1.50;;;;;;;18.08;50.88;93458.83;1705178;83;21018;-59
2021/05/14 09:17:15;;;;;;;8.75;1.80;;;;;;;18.18;50.56;93461.99;1707777;82;21612;-54
2021/05/14 09:19:46;;;;;;;2.00;1.32;;;;;;;18.16;50.89;93459.72;1705697;83;21111;-56
2021/05/14 09:22:21;;;;;;;16.60;2.17;;;;;;;18.10;50.85;93456.27;1710191;82;21101;-54
2021/05/14 09:24:57;;;;;;;5.40;1.50;;;;;;;18.11;51.01;93457.77;1709904;82;21107;-54
2021/05/14 09:27:31;;;;;;;11.70;1.30;;;;;;;18.14;50.33;93465.06;1680506;83;21703;-54
2021/05/14 09:30:00;;;;;;;1.37;1.27;;;;;;;18.11;50.06;93468.14;1698053;82;21104;-56
2021/05/14 09:32:30;;;;;;;1.92;0.98;;;;;;;18.08;49.48;93471.98;1711746;82;21051;-53
2021/05/14 09:35:00;;;;;;;1.35;0.90;;;;;;;18.02;50.17;93468.52;1718441;82;21658;-55
2021/05/14 09:37:28;;;;;;;2.20;1.22;;;;;;;17.95;49.10;93464.30;1715454;82;22205;-57
2021/05/14 09:40:19;;;;;;;7.58;2.60;;;;;;;17.92;48.96;93470.92;1699006;83;21078;-54
2021/05/14 09:42:49;;;;;;;3.65;1.22;;;;;;;17.90;49.46;93461.59;1714702;82;21103;-52
2021/05/14 09:45:25;;;;;;;7.20;1.62;;;;;;;17.97;49.24;93472.14;1712446;82;21103;-53
2021/05/14 09:48:14;;;;;;;2.65;1.07;;;;;;;18.00;49.14;93460.69;1706005;82;21048;-55
2021/05/14 09:50:37;;;;;;;7.10;1.52;;;;;;;18.01;49.32;93462.84;1714544;82;21675;-55
2021/05/14 09:53:14;;;;;;;0.90;0.90;;;;;;;18.06;49.52;93471.76;1707684;82;21171;-56
2021/05/14 09:55:49;;;;;;;0.70;0.70;;;;;;;18.06;49.81;93466.95;1708457;83;21012;-53
2021/05/14 09:58:22;;;;;;;1.07;0.80;;;;;;;18.11;48.86;93471.69;1709257;83;21102;-56
2021/05/14 10:00:45;;;;;;;1.98;0.90;;;;;;;18.19;50.03;93472.59;1708165;82;21075;-54
2021/05/14 10:03:18;;;;;;;1.17;0.78;;;;;;;18.29;49.89;93473.10;1715085;83;21111;-55
2021/05/14 10:05:49;;;;;;;;;;;;;;;18.36;48.92;93478.09;1705302;82;21083;-57
2021/05/14 10:08:19;;;;;;;0.75;0.70;;;;;;;18.33;49.56;93479.14;1681806;82;20265;-55
2021/05/14 10:10:45;;;;;;;3.20;2.85;;;;;;;18.32;48.90;93477.61;1702730;84;21092;-56
2021/05/14 10:13:13;;;;;;;2.52;2.25;;;;;;;18.40;49.03;93474.98;1702680;84;21099;-56
2021/05/14 10:15:39;;;;;;;8.48;1.67;;;;;;;18.53;50.02;93478.60;1715533;82;21048;-55
2021/05/14 10:18:17;;;;;;;2.98;1.30;;;;;;;18.72;50.90;93477.93;1732415;82;21092;-53
2021/05/14 10:20:45;;;;;;;0.72;0.72;;;;;;;18.78;48.98;93475.80;1713207;82;21072;-54
2021/05/14 10:23:12;;;;;;;0.60;0.60;;;;;;;18.79;49.02;93479.36;1711310;82;21086;-54
2021/05/14 10:25:43;;;;;;;3.02;1.20;;;;;;;18.83;49.09;93477.74;1730836;81;21048;-52
2021/05/14 10:28:13;;;;;;;2.62;1.40;;;;;;;18.89;48.43;93477.66;1738615;82;21701;-54
2021/05/14 10:31:05;;;;;;;9.38;2.10;;;;;;;18.84;47.21;93473.67;1694252;82;21098;-53
2021/05/14 10:33:51;;;;;;;6.37;1.75;;;;;;;18.81;47.45;93476.78;1665997;85;21065;-53
2021/05/14 10:36:31;;;;;;;8.25;1.70;;;;;;;18.79;47.54;93484.27;1643185;84;21122;-55
2021/05/14 10:39:10;;;;;;;5.87;1.52;;;;;;;18.79;48.09;93480.75;1702668;82;20973;-55
2021/05/14 10:41:49;;;;;;;1.52;0.80;;;;;;;18.72;48.24;93488.31;1704137;82;21830;-55
2021/05/14 10:44:17;;;;;;;1.45;0.80;;;;;;;18.63;47.25;93485.92;1708089;82;21144;-56
2021/05/14 10:46:45;;;;;;;3.05;0.80;;;;;;;18.40;46.93;93493.84;1701087;82;21140;-54
2021/05/14 10:49:13;;;;;;;2.45;0.80;;;;;;;18.22;47.80;93483.42;1712217;82;21139;-54
2021/05/14 10:51:52;;;;;;;6.78;1.05;;;;;;;18.17;48.38;93485.55;1702789;84;21053;-54
2021/05/14 10:54:44;;;;;;;4.42;1.30;;;;;;;18.20;48.37;93492.95;1705461;82;21117;-54
2021/05/14 10:57:14;;;;;;;6.03;1.50;;;;;;;18.13;47.95;93485.06;1675634;84;21097;-58
2021/05/14 10:59:41;;;;;;;4.08;1.20;;;;;;;17.99;48.61;93494.63;1698169;84;21103;-57
2021/05/14 11:02:31;;;;;;;9.35;2.10;;;;;;;17.92;48.61;93493.81;1645743;84;21110;-55
2021/05/14 11:04:59;;;;;;;1.17;1.00;;;;;;;17.81;49.35;93491.92;1688827;83;21134;-55
2021/05/14 11:07:39;;;;;;;6.35;1.30;;;;;;;17.76;49.42;93496.14;1694214;83;21092;-55
2021/05/14 11:10:35;;;;;;;3.05;1.30;;;;;;;17.68;49.04;93498.02;1660994;84;21069;-60
2021/05/14 11:13:37;;;;;;;2.35;1.62;;;;;;;17.57;49.07;93498.13;1720385;83;21625;-58
2021/05/14 11:16:41;;;;;;;1.02;0.90;;;;;;;17.39;49.99;93504.38;1691859;83;21142;-57
2021/05/14 11:19:19;;;;;;;13.05;2.10;;;;;;;17.24;50.86;93510.97;1676492;83;22333;-54
2021/05/14 11:22:13;;;;;;;6.53;2.02;;;;;;;17.03;51.56;93517.58;1693595;83;21097;-53
2021/05/14 11:24:43;;;;;;;3.15;2.20;;;;;;;16.93;51.80;93512.88;1695938;83;21148;-54
2021/05/14 11:27:13;;;;;;;5.95;1.80;;;;;;;16.85;52.24;93509.13;1704154;83;21027;-56
2021/05/14 11:29:53;;;;;;;5.17;1.40;;;;;;;16.80;53.28;93512.70;1704001;83;21116;-53
2021/05/14 11:32:32;;;;;;;10.03;2.37;;;;;;;16.75;52.62;93520.45;1678418;83;21097;-55
2021/05/14 11:35:15;;;;;;;5.83;2.10;;;;;;;16.81;53.13;93530.26;1704137;83;21926;-56
2021/05/14 11:37:56;;;;;;;1.60;1.45;;;;;;;16.93;52.42;93526.76;1708968;81;21086;-56
2021/05/14 11:40:38;;;;;;;0.90;0.90;;;;;;;17.16;51.73;93529.47;1693704;83;21102;-55
2021/05/14 11:43:06;;;;;;;;;;;;;;;17.38;50.94;93520.95;1696070;83;21112;-57
2021/05/14 11:45:37;;;;;;;10.72;1.27;;;;;;;17.66;50.99;93536.08;1691401;84;20343;-55